sensor_id;sensor_type;location;lat;lon;timestamp;pressure;altitude;pressure_sealevel;temperature;humidity
73692;BME280;61996;49.910;35.562;2023-05-10T00:02:04;99997.50;;;19.09;31.63
73692;BME280;61996;49.910;35.562;2023-05-10T00:05:08;99994.16;;;19.07;31.89
73692;BME280;61996;49.910;35.562;2023-05-10T00:08:10;99991.47;;;19.07;31.86
73692;BME280;61996;49.910;35.562;2023-05-10T00:11:13;99992.00;;;19.01;31.73
73692;BME280;61996;49.910;35.562;2023-05-10T00:14:17;99980.22;;;19.03;31.42
73692;BME280;61996;49.910;35.562;2023-05-10T00:17:20;99990.19;;;19.01;31.69
73692;BME280;61996;49.910;35.562;2023-05-10T00:20:23;99993.31;;;19.06;31.35
73692;BME280;61996;49.910;35.562;2023-05-10T00:23:26;99988.69;;;19.08;31.33
73692;BME280;61996;49.910;35.562;2023-05-10T00:26:28;99991.72;;;19.04;31.59
73692;BME280;61996;49.910;35.562;2023-05-10T00:29:33;99989.78;;;19.06;31.73
73692;BME280;61996;49.910;35.562;2023-05-10T00:32:35;99988.34;;;19.02;31.59
73692;BME280;61996;49.910;35.562;2023-05-10T00:35:38;99988.50;;;19.00;31.44
73692;BME280;61996;49.910;35.562;2023-05-10T00:38:41;99985.81;;;19.00;31.60
73692;BME280;61996;49.910;35.562;2023-05-10T00:41:44;99986.25;;;19.05;31.73
73692;BME280;61996;49.910;35.562;2023-05-10T00:44:48;99985.03;;;19.09;31.39
73692;BME280;61996;49.910;35.562;2023-05-10T00:47:51;99985.97;;;18.99;31.65
73692;BME280;61996;49.910;35.562;2023-05-10T00:50:56;99988.53;;;19.10;31.52
73692;BME280;61996;49.910;35.562;2023-05-10T00:53:59;99979.06;;;18.96;31.76
73692;BME280;61996;49.910;35.562;2023-05-10T00:57:02;99982.69;;;18.95;31.69
73692;BME280;61996;49.910;35.562;2023-05-10T01:00:07;99989.00;;;18.94;31.81
73692;BME280;61996;49.910;35.562;2023-05-10T01:03:11;99991.69;;;18.94;31.76
73692;BME280;61996;49.910;35.562;2023-05-10T01:06:14;99986.06;;;18.97;31.61
73692;BME280;61996;49.910;35.562;2023-05-10T01:09:17;99982.00;;;18.93;31.71
73692;BME280;61996;49.910;35.562;2023-05-10T01:12:20;99981.03;;;18.94;31.84
73692;BME280;61996;49.910;35.562;2023-05-10T01:15:24;99986.47;;;18.93;31.64
73692;BME280;61996;49.910;35.562;2023-05-10T01:18:27;99982.97;;;18.92;31.87
73692;BME280;61996;49.910;35.562;2023-05-10T01:21:33;99988.09;;;18.84;31.58
73692;BME280;61996;49.910;35.562;2023-05-10T01:24:58;99986.88;;;18.88;31.63
73692;BME280;61996;49.910;35.562;2023-05-10T01:28:17;99979.38;;;18.82;31.78
73692;BME280;61996;49.910;35.562;2023-05-10T01:31:34;99986.28;;;18.84;31.75
73692;BME280;61996;49.910;35.562;2023-05-10T01:34:45;99991.72;;;18.83;31.60
73692;BME280;61996;49.910;35.562;2023-05-10T01:37:59;99991.59;;;18.84;31.74
73692;BME280;61996;49.910;35.562;2023-05-10T01:41:05;100000.56;;;18.83;31.82
73692;BME280;61996;49.910;35.562;2023-05-10T01:44:15;100005.66;;;18.86;31.88
73692;BME280;61996;49.910;35.562;2023-05-10T01:47:20;100003.66;;;18.79;31.77
73692;BME280;61996;49.910;35.562;2023-05-10T01:50:27;100002.53;;;18.81;31.66
73692;BME280;61996;49.910;35.562;2023-05-10T01:53:31;100011.22;;;18.83;31.55
73692;BME280;61996;49.910;35.562;2023-05-10T01:56:35;100007.66;;;18.94;31.54
73692;BME280;61996;49.910;35.562;2023-05-10T01:59:40;100003.69;;;18.88;31.58
73692;BME280;61996;49.910;35.562;2023-05-10T02:02:46;100002.16;;;18.86;31.50
73692;BME280;61996;49.910;35.562;2023-05-10T02:05:51;100003.38;;;18.82;31.77
73692;BME280;61996;49.910;35.562;2023-05-10T02:08:54;100000.47;;;18.85;31.56
73692;BME280;61996;49.910;35.562;2023-05-10T02:11:57;99997.34;;;18.80;31.71
73692;BME280;61996;49.910;35.562;2023-05-10T02:15:02;100002.53;;;18.81;31.69
73692;BME280;61996;49.910;35.562;2023-05-10T02:18:06;99997.06;;;18.83;31.76
73692;BME280;61996;49.910;35.562;2023-05-10T02:21:12;99997.19;;;18.81;31.93
73692;BME280;61996;49.910;35.562;2023-05-10T02:24:16;99991.31;;;18.78;31.82
73692;BME280;61996;49.910;35.562;2023-05-10T02:27:20;99998.19;;;18.80;31.78
73692;BME280;61996;49.910;35.562;2023-05-10T02:30:23;100000.25;;;18.77;31.94
73692;BME280;61996;49.910;35.562;2023-05-10T02:33:26;99999.53;;;18.75;31.98
73692;BME280;61996;49.910;35.562;2023-05-10T02:36:31;99997.47;;;18.78;31.84
73692;BME280;61996;49.910;35.562;2023-05-10T02:39:34;99999.28;;;18.78;32.03
73692;BME280;61996;49.910;35.562;2023-05-10T02:42:37;100000.97;;;18.79;31.99
73692;BME280;61996;49.910;35.562;2023-05-10T02:45:41;99999.03;;;18.81;32.09
73692;BME280;61996;49.910;35.562;2023-05-10T02:48:45;99999.41;;;18.76;32.11
73692;BME280;61996;49.910;35.562;2023-05-10T02:51:50;100003.03;;;18.75;32.00
73692;BME280;61996;49.910;35.562;2023-05-10T02:54:54;99997.56;;;18.77;32.10
73692;BME280;61996;49.910;35.562;2023-05-10T02:57:59;100003.66;;;18.79;31.89
73692;BME280;61996;49.910;35.562;2023-05-10T03:01:02;100002.81;;;18.78;31.78
73692;BME280;61996;49.910;35.562;2023-05-10T03:04:05;99999.41;;;18.76;32.08
73692;BME280;61996;49.910;35.562;2023-05-10T03:07:10;100006.41;;;18.77;32.12
73692;BME280;61996;49.910;35.562;2023-05-10T03:10:13;100004.63;;;18.78;31.93
73692;BME280;61996;49.910;35.562;2023-05-10T03:13:16;100010.91;;;18.77;31.99
73692;BME280;61996;49.910;35.562;2023-05-10T03:16:24;100021.00;;;18.73;31.83
73692;BME280;61996;49.910;35.562;2023-05-10T03:19:30;100024.13;;;18.78;31.97
73692;BME280;61996;49.910;35.562;2023-05-10T03:22:37;100034.50;;;18.81;32.04
73692;BME280;61996;49.910;35.562;2023-05-10T03:25:40;100031.13;;;18.79;32.10
73692;BME280;61996;49.910;35.562;2023-05-10T03:28:45;100028.72;;;18.76;31.92
73692;BME280;61996;49.910;35.562;2023-05-10T03:31:48;100030.28;;;18.79;31.98
73692;BME280;61996;49.910;35.562;2023-05-10T03:34:51;100024.13;;;18.78;32.10
73692;BME280;61996;49.910;35.562;2023-05-10T03:37:55;100025.19;;;18.76;32.08
73692;BME280;61996;49.910;35.562;2023-05-10T03:40:58;100025.19;;;18.76;31.95
73692;BME280;61996;49.910;35.562;2023-05-10T03:44:01;100031.50;;;18.75;32.04
73692;BME280;61996;49.910;35.562;2023-05-10T03:47:04;100033.78;;;18.79;31.89
73692;BME280;61996;49.910;35.562;2023-05-10T03:50:07;100030.53;;;18.76;32.04
73692;BME280;61996;49.910;35.562;2023-05-10T03:53:13;100033.78;;;18.79;31.85
73692;BME280;61996;49.910;35.562;2023-05-10T03:56:15;100029.03;;;18.83;31.75
73692;BME280;61996;49.910;35.562;2023-05-10T03:59:18;100038.63;;;18.85;32.04
73692;BME280;61996;49.910;35.562;2023-05-10T04:02:21;100031.69;;;18.83;31.91
73692;BME280;61996;49.910;35.562;2023-05-10T04:05:24;100036.31;;;18.81;31.97
73692;BME280;61996;49.910;35.562;2023-05-10T04:08:28;100031.84;;;18.81;32.04
73692;BME280;61996;49.910;35.562;2023-05-10T04:11:31;100032.69;;;18.82;32.03
73692;BME280;61996;49.910;35.562;2023-05-10T04:14:34;100023.56;;;18.84;32.10
73692;BME280;61996;49.910;35.562;2023-05-10T04:17:37;100033.72;;;18.90;31.91
73692;BME280;61996;49.910;35.562;2023-05-10T04:20:39;100020.53;;;18.89;31.95
73692;BME280;61996;49.910;35.562;2023-05-10T04:23:44;100015.38;;;18.97;31.82
73692;BME280;61996;49.910;35.562;2023-05-10T04:26:46;100005.72;;;18.96;31.69
73692;BME280;61996;49.910;35.562;2023-05-10T04:29:49;100008.84;;;19.01;31.63
73692;BME280;61996;49.910;35.562;2023-05-10T04:32:52;100006.88;;;19.03;31.43
73692;BME280;61996;49.910;35.562;2023-05-10T04:35:55;99997.19;;;19.02;31.46
73692;BME280;61996;49.910;35.562;2023-05-10T04:38:59;100002.06;;;18.97;31.62
73692;BME280;61996;49.910;35.562;2023-05-10T04:42:04;99999.47;;;19.07;31.63
73692;BME280;61996;49.910;35.562;2023-05-10T04:45:07;100000.63;;;19.14;31.48
73692;BME280;61996;49.910;35.562;2023-05-10T04:48:11;99997.13;;;19.13;31.70
73692;BME280;61996;49.910;35.562;2023-05-10T04:51:14;100000.97;;;19.21;31.75
73692;BME280;61996;49.910;35.562;2023-05-10T04:54:19;100002.66;;;19.22;31.51
73692;BME280;61996;49.910;35.562;2023-05-10T04:57:21;99999.00;;;19.23;31.28
73692;BME280;61996;49.910;35.562;2023-05-10T05:00:24;99999.69;;;19.25;31.48
73692;BME280;61996;49.910;35.562;2023-05-10T05:03:27;100001.13;;;19.29;31.41
73692;BME280;61996;49.910;35.562;2023-05-10T05:06:30;99995.44;;;19.43;31.26
73692;BME280;61996;49.910;35.562;2023-05-10T05:09:34;99993.59;;;19.34;31.24
73692;BME280;61996;49.910;35.562;2023-05-10T05:12:37;99998.09;;;19.33;31.29
73692;BME280;61996;49.910;35.562;2023-05-10T05:15:40;100000.84;;;19.32;31.00
73692;BME280;61996;49.910;35.562;2023-05-10T05:18:43;99998.91;;;19.34;31.40
73692;BME280;61996;49.910;35.562;2023-05-10T05:21:46;99993.84;;;19.31;31.17
73692;BME280;61996;49.910;35.562;2023-05-10T05:24:50;99995.44;;;19.43;31.16
73692;BME280;61996;49.910;35.562;2023-05-10T05:27:53;99997.00;;;19.45;31.12
73692;BME280;61996;49.910;35.562;2023-05-10T05:30:55;99985.34;;;19.47;31.21
73692;BME280;61996;49.910;35.562;2023-05-10T05:33:58;99989.13;;;19.44;31.33
73692;BME280;61996;49.910;35.562;2023-05-10T05:37:01;100000.91;;;19.41;30.76
73692;BME280;61996;49.910;35.562;2023-05-10T05:40:06;99987.22;;;19.56;31.07
73692;BME280;61996;49.910;35.562;2023-05-10T05:43:08;99985.72;;;19.63;31.02
73692;BME280;61996;49.910;35.562;2023-05-10T05:46:11;99989.84;;;19.46;30.71
73692;BME280;61996;49.910;35.562;2023-05-10T05:49:14;99983.47;;;19.58;31.39
73692;BME280;61996;49.910;35.562;2023-05-10T05:52:17;99978.81;;;19.60;31.06
73692;BME280;61996;49.910;35.562;2023-05-10T05:55:21;99977.59;;;19.64;31.35
73692;BME280;61996;49.910;35.562;2023-05-10T05:58:25;99977.78;;;19.52;30.44
73692;BME280;61996;49.910;35.562;2023-05-10T06:01:28;99968.25;;;19.49;30.71
73692;BME280;61996;49.910;35.562;2023-05-10T06:04:31;99968.16;;;19.60;30.50
73692;BME280;61996;49.910;35.562;2023-05-10T06:07:34;99964.38;;;19.63;30.46
73692;BME280;61996;49.910;35.562;2023-05-10T06:10:38;99969.19;;;19.69;30.76
73692;BME280;61996;49.910;35.562;2023-05-10T06:13:41;99965.63;;;19.59;30.75
73692;BME280;61996;49.910;35.562;2023-05-10T06:16:44;99947.84;;;19.69;31.07
73692;BME280;61996;49.910;35.562;2023-05-10T06:19:47;99959.22;;;19.71;31.16
73692;BME280;61996;49.910;35.562;2023-05-10T06:22:49;99965.00;;;19.76;30.91
73692;BME280;61996;49.910;35.562;2023-05-10T06:25:54;99958.22;;;19.72;31.08
73692;BME280;61996;49.910;35.562;2023-05-10T06:28:56;99964.31;;;19.84;30.51
73692;BME280;61996;49.910;35.562;2023-05-10T06:31:59;99955.31;;;19.75;30.99
73692;BME280;61996;49.910;35.562;2023-05-10T06:35:02;99952.19;;;19.70;30.87
73692;BME280;61996;49.910;35.562;2023-05-10T06:38:05;99961.19;;;19.69;30.27
73692;BME280;61996;49.910;35.562;2023-05-10T06:41:09;99965.09;;;19.65;30.16
73692;BME280;61996;49.910;35.562;2023-05-10T06:44:13;99964.69;;;19.69;30.01
73692;BME280;61996;49.910;35.562;2023-05-10T06:47:15;99971.66;;;19.61;29.73
73692;BME280;61996;49.910;35.562;2023-05-10T06:50:18;99963.41;;;19.64;29.61
73692;BME280;61996;49.910;35.562;2023-05-10T06:53:21;99968.75;;;19.64;29.88
73692;BME280;61996;49.910;35.562;2023-05-10T06:56:25;99967.63;;;19.66;30.07
73692;BME280;61996;49.910;35.562;2023-05-10T06:59:28;99969.47;;;19.76;30.51
73692;BME280;61996;49.910;35.562;2023-05-10T07:02:31;99976.34;;;19.68;29.88
73692;BME280;61996;49.910;35.562;2023-05-10T07:05:34;99963.97;;;19.67;30.28
73692;BME280;61996;49.910;35.562;2023-05-10T07:08:37;99967.91;;;19.63;29.96
73692;BME280;61996;49.910;35.562;2023-05-10T07:11:41;99962.03;;;19.69;29.10
73692;BME280;61996;49.910;35.562;2023-05-10T07:14:44;99948.84;;;19.78;29.84
73692;BME280;61996;49.910;35.562;2023-05-10T07:17:47;99945.47;;;19.76;29.58
73692;BME280;61996;49.910;35.562;2023-05-10T07:20:50;99946.16;;;19.68;29.34
73692;BME280;61996;49.910;35.562;2023-05-10T07:23:53;99948.84;;;19.78;28.74
73692;BME280;61996;49.910;35.562;2023-05-10T07:26:57;99949.44;;;19.91;29.48
73692;BME280;61996;49.910;35.562;2023-05-10T07:30:00;99939.63;;;20.11;30.03
73692;BME280;61996;49.910;35.562;2023-05-10T07:33:03;99939.72;;;19.99;29.76
73692;BME280;61996;49.910;35.562;2023-05-10T07:36:06;99951.94;;;20.02;29.61
73692;BME280;61996;49.910;35.562;2023-05-10T07:39:09;99949.28;;;20.02;29.82
73692;BME280;61996;49.910;35.562;2023-05-10T07:42:18;99948.03;;;19.96;29.77
73692;BME280;61996;49.910;35.562;2023-05-10T07:45:21;99942.69;;;19.96;29.92
73692;BME280;61996;49.910;35.562;2023-05-10T07:48:24;99954.75;;;19.91;30.05
73692;BME280;61996;49.910;35.562;2023-05-10T07:51:27;99953.50;;;19.95;30.30
73692;BME280;61996;49.910;35.562;2023-05-10T07:54:30;99946.47;;;19.94;29.91
73692;BME280;61996;49.910;35.562;2023-05-10T07:57:34;99956.44;;;19.92;29.91
73692;BME280;61996;49.910;35.562;2023-05-10T08:00:37;99949.81;;;19.86;29.94
73692;BME280;61996;49.910;35.562;2023-05-10T08:03:40;99944.34;;;19.88;29.99
73692;BME280;61996;49.910;35.562;2023-05-10T08:06:43;99944.63;;;19.85;29.95
73692;BME280;61996;49.910;35.562;2023-05-10T08:09:46;99938.91;;;19.89;30.00
73692;BME280;61996;49.910;35.562;2023-05-10T08:12:50;99942.41;;;19.90;29.78
73692;BME280;61996;49.910;35.562;2023-05-10T08:15:53;99937.75;;;19.92;29.89
73692;BME280;61996;49.910;35.562;2023-05-10T08:18:56;99942.97;;;19.93;29.96
73692;BME280;61996;49.910;35.562;2023-05-10T08:21:59;99932.81;;;19.87;30.09
73692;BME280;61996;49.910;35.562;2023-05-10T08:25:02;99937.06;;;19.90;29.82
73692;BME280;61996;49.910;35.562;2023-05-10T08:28:06;99936.78;;;19.93;29.67
73692;BME280;61996;49.910;35.562;2023-05-10T08:31:11;99934.94;;;19.93;29.79
73692;BME280;61996;49.910;35.562;2023-05-10T08:34:14;99933.13;;;19.94;29.84
73692;BME280;61996;49.910;35.562;2023-05-10T08:37:17;99936.50;;;19.96;29.84
73692;BME280;61996;49.910;35.562;2023-05-10T08:40:20;99935.53;;;19.97;29.83
73692;BME280;61996;49.910;35.562;2023-05-10T08:43:24;99928.38;;;19.97;29.96
73692;BME280;61996;49.910;35.562;2023-05-10T08:46:28;99931.88;;;19.98;29.77
73692;BME280;61996;49.910;35.562;2023-05-10T08:49:33;99926.94;;;19.93;29.59
73692;BME280;61996;49.910;35.562;2023-05-10T08:52:37;99930.44;;;19.94;29.80
73692;BME280;61996;49.910;35.562;2023-05-10T08:55:41;99923.88;;;19.98;29.66
73692;BME280;61996;49.910;35.562;2023-05-10T08:58:45;99914.03;;;19.98;29.65
73692;BME280;61996;49.910;35.562;2023-05-10T09:01:48;99921.06;;;19.99;29.68
73692;BME280;61996;49.910;35.562;2023-05-10T09:04:52;99920.63;;;20.04;29.81
73692;BME280;61996;49.910;35.562;2023-05-10T09:07:54;99919.50;;;20.07;29.73
73692;BME280;61996;49.910;35.562;2023-05-10T09:10:58;99918.97;;;20.03;29.43
73692;BME280;61996;49.910;35.562;2023-05-10T09:14:04;99908.00;;;20.06;29.63
73692;BME280;61996;49.910;35.562;2023-05-10T09:17:07;99905.19;;;20.17;30.67
73692;BME280;61996;49.910;35.562;2023-05-10T09:20:10;99893.78;;;20.15;29.47
73692;BME280;61996;49.910;35.562;2023-05-10T09:23:12;99904.34;;;20.17;29.26
73692;BME280;61996;49.910;35.562;2023-05-10T09:26:15;99896.88;;;20.20;29.40
73692;BME280;61996;49.910;35.562;2023-05-10T09:29:20;99896.19;;;20.18;29.62
73692;BME280;61996;49.910;35.562;2023-05-10T09:32:25;99894.22;;;20.20;29.42
73692;BME280;61996;49.910;35.562;2023-05-10T09:35:38;99901.94;;;20.23;29.57
73692;BME280;61996;49.910;35.562;2023-05-10T09:38:44;99893.91;;;20.23;29.66
73692;BME280;61996;49.910;35.562;2023-05-10T09:41:48;99897.47;;;20.24;30.02
73692;BME280;61996;49.910;35.562;2023-05-10T09:44:52;99894.66;;;20.25;29.56
73692;BME280;61996;49.910;35.562;2023-05-10T09:47:55;99902.81;;;20.24;30.02
73692;BME280;61996;49.910;35.562;2023-05-10T09:50:58;99886.06;;;20.22;29.67
73692;BME280;61996;49.910;35.562;2023-05-10T09:54:10;99884.81;;;20.26;29.74
73692;BME280;61996;49.910;35.562;2023-05-10T09:57:18;99891.97;;;20.25;29.54
73692;BME280;61996;49.910;35.562;2023-05-10T10:00:23;99882.97;;;20.26;30.00
73692;BME280;61996;49.910;35.562;2023-05-10T10:03:26;99881.72;;;20.31;30.36
73692;BME280;61996;49.910;35.562;2023-05-10T10:06:34;99882.13;;;20.16;29.39
73692;BME280;61996;49.910;35.562;2023-05-10T10:09:37;99880.56;;;20.23;29.89
73692;BME280;61996;49.910;35.562;2023-05-10T10:12:41;99878.63;;;20.25;29.52
73692;BME280;61996;49.910;35.562;2023-05-10T10:15:45;99877.22;;;20.31;29.51
73692;BME280;61996;49.910;35.562;2023-05-10T10:18:52;99868.19;;;20.61;30.46
73692;BME280;61996;49.910;35.562;2023-05-10T10:21:55;99882.66;;;20.30;30.14
73692;BME280;61996;49.910;35.562;2023-05-10T10:24:58;99881.72;;;20.31;30.04
73692;BME280;61996;49.910;35.562;2023-05-10T10:28:06;99891.66;;;20.29;30.17
73692;BME280;61996;49.910;35.562;2023-05-10T10:31:17;99888.47;;;20.25;30.05
73692;BME280;61996;49.910;35.562;2023-05-10T10:34:22;99887.63;;;20.24;30.04
73692;BME280;61996;49.910;35.562;2023-05-10T10:37:40;99886.47;;;20.27;29.98
73692;BME280;61996;49.910;35.562;2023-05-10T10:40:43;99892.13;;;20.24;29.62
73692;BME280;61996;49.910;35.562;2023-05-10T10:43:46;99898.56;;;20.21;29.61
73692;BME280;61996;49.910;35.562;2023-05-10T10:50:11;99898.03;;;20.18;29.51
73692;BME280;61996;49.910;35.562;2023-05-10T10:53:18;99885.78;;;20.15;29.04
73692;BME280;61996;49.910;35.562;2023-05-10T10:56:21;99886.06;;;20.12;29.40
73692;BME280;61996;49.910;35.562;2023-05-10T10:59:26;99881.84;;;20.19;29.34
73692;BME280;61996;49.910;35.562;2023-05-10T11:02:33;99880.88;;;20.20;29.35
73692;BME280;61996;49.910;35.562;2023-05-10T11:05:41;99874.81;;;20.18;29.43
73692;BME280;61996;49.910;35.562;2023-05-10T11:08:44;99866.81;;;20.18;29.15
73692;BME280;61996;49.910;35.562;2023-05-10T11:11:51;99870.19;;;20.20;29.22
73692;BME280;61996;49.910;35.562;2023-05-10T11:14:56;99871.84;;;20.21;29.77
73692;BME280;61996;49.910;35.562;2023-05-10T11:17:59;99864.53;;;20.23;30.07
73692;BME280;61996;49.910;35.562;2023-05-10T11:21:04;99867.94;;;20.25;29.27
73692;BME280;61996;49.910;35.562;2023-05-10T11:24:12;99861.59;;;20.26;29.84
73692;BME280;61996;49.910;35.562;2023-05-10T11:27:15;99862.03;;;20.32;29.50
73692;BME280;61996;49.910;35.562;2023-05-10T11:30:18;99865.38;;;20.34;29.55
73692;BME280;61996;49.910;35.562;2023-05-10T11:33:21;99849.38;;;20.34;29.44
73692;BME280;61996;49.910;35.562;2023-05-10T11:36:26;99846.84;;;20.32;29.53
73692;BME280;61996;49.910;35.562;2023-05-10T11:39:29;99853.19;;;20.31;29.33
73692;BME280;61996;49.910;35.562;2023-05-10T11:42:33;99857.78;;;20.29;29.27
73692;BME280;61996;49.910;35.562;2023-05-10T11:45:35;99858.38;;;20.33;29.24
73692;BME280;61996;49.910;35.562;2023-05-10T11:48:40;99863.13;;;20.29;29.31
73692;BME280;61996;49.910;35.562;2023-05-10T11:51:48;99856.94;;;20.29;29.31
73692;BME280;61996;49.910;35.562;2023-05-10T11:54:54;99858.09;;;20.26;28.62
73692;BME280;61996;49.910;35.562;2023-05-10T11:58:00;99851.34;;;20.32;29.12
73692;BME280;61996;49.910;35.562;2023-05-10T12:01:03;99853.28;;;20.30;29.08
73692;BME280;61996;49.910;35.562;2023-05-10T12:04:07;99851.34;;;20.32;29.23
73692;BME280;61996;49.910;35.562;2023-05-10T12:07:11;99854.13;;;20.30;29.37
73692;BME280;61996;49.910;35.562;2023-05-10T12:10:14;99852.44;;;20.29;29.27
73692;BME280;61996;49.910;35.562;2023-05-10T12:13:19;99852.59;;;20.27;29.32
73692;BME280;61996;49.910;35.562;2023-05-10T12:16:23;99852.44;;;20.29;29.38
73692;BME280;61996;49.910;35.562;2023-05-10T12:19:26;99847.25;;;20.27;29.21
73692;BME280;61996;49.910;35.562;2023-05-10T12:22:30;99841.22;;;20.25;29.34
73692;BME280;61996;49.910;35.562;2023-05-10T12:25:36;99840.66;;;20.32;29.30
73692;BME280;61996;49.910;35.562;2023-05-10T12:28:39;99845.16;;;20.31;29.23
73692;BME280;61996;49.910;35.562;2023-05-10T12:31:54;99837.28;;;20.30;29.01
73692;BME280;61996;49.910;35.562;2023-05-10T12:34:57;99841.78;;;20.29;29.25
73692;BME280;61996;49.910;35.562;2023-05-10T12:38:01;99835.59;;;20.29;29.31
73692;BME280;61996;49.910;35.562;2023-05-10T12:41:24;99831.94;;;20.30;29.21
73692;BME280;61996;49.910;35.562;2023-05-10T12:44:27;99845.16;;;20.31;29.31
73692;BME280;61996;49.910;35.562;2023-05-10T12:47:30;99835.84;;;20.35;29.24
73692;BME280;61996;49.910;35.562;2023-05-10T12:50:33;99834.03;;;20.36;29.29
73692;BME280;61996;49.910;35.562;2023-05-10T12:53:37;99830.25;;;20.38;28.77
73692;BME280;61996;49.910;35.562;2023-05-10T12:56:42;99827.84;;;20.35;29.19
73692;BME280;61996;49.910;35.562;2023-05-10T12:59:48;99832.06;;;20.38;29.30
73692;BME280;61996;49.910;35.562;2023-05-10T13:02:51;99835.03;;;20.35;29.02
73692;BME280;61996;49.910;35.562;2023-05-10T13:05:54;99825.75;;;20.39;29.04
73692;BME280;61996;49.910;35.562;2023-05-10T13:08:58;99834.44;;;20.41;29.49
73692;BME280;61996;49.910;35.562;2023-05-10T13:12:01;99835.72;;;20.37;29.18
73692;BME280;61996;49.910;35.562;2023-05-10T13:15:04;99827.69;;;20.37;29.26
73692;BME280;61996;49.910;35.562;2023-05-10T13:18:08;99836.84;;;20.34;29.23
73692;BME280;61996;49.910;35.562;2023-05-10T13:21:11;99830.25;;;20.38;28.82
73692;BME280;61996;49.910;35.562;2023-05-10T13:24:15;99827.69;;;20.37;29.23
73692;BME280;61996;49.910;35.562;2023-05-10T13:27:18;99833.34;;;20.34;29.24
73692;BME280;61996;49.910;35.562;2023-05-10T13:30:21;99822.66;;;20.34;29.23
73692;BME280;61996;49.910;35.562;2023-05-10T13:33:25;99822.81;;;20.32;28.74
73692;BME280;61996;49.910;35.562;2023-05-10T13:36:27;99829.00;;;20.33;29.21
73692;BME280;61996;49.910;35.562;2023-05-10T13:39:32;99830.25;;;20.29;29.35
73692;BME280;61996;49.910;35.562;2023-05-10T13:42:35;99827.44;;;20.30;29.37
73692;BME280;61996;49.910;35.562;2023-05-10T13:45:38;99829.13;;;20.31;29.40
73692;BME280;61996;49.910;35.562;2023-05-10T13:48:41;99830.97;;;20.31;29.34
73692;BME280;61996;49.910;35.562;2023-05-10T13:51:44;99829.25;;;20.30;29.27
73692;BME280;61996;49.910;35.562;2023-05-10T13:54:48;99842.63;;;20.30;29.34
73692;BME280;61996;49.910;35.562;2023-05-10T13:57:53;99833.19;;;20.35;29.17
73692;BME280;61996;49.910;35.562;2023-05-10T14:00:58;99840.94;;;20.29;29.47
73692;BME280;61996;49.910;35.562;2023-05-10T14:04:01;99840.78;;;20.30;29.53
73692;BME280;61996;49.910;35.562;2023-05-10T14:07:04;99846.00;;;20.32;29.54
73692;BME280;61996;49.910;35.562;2023-05-10T14:10:09;99838.69;;;20.34;29.56
73692;BME280;61996;49.910;35.562;2023-05-10T14:13:11;99846.13;;;20.30;29.57
73692;BME280;61996;49.910;35.562;2023-05-10T14:16:14;99850.34;;;20.33;29.04
73692;BME280;61996;49.910;35.562;2023-05-10T14:19:17;99840.66;;;20.32;29.27
73692;BME280;61996;49.910;35.562;2023-05-10T14:22:20;99838.09;;;20.30;29.44
73692;BME280;61996;49.910;35.562;2023-05-10T14:25:25;99834.91;;;20.26;29.62
73692;BME280;61996;49.910;35.562;2023-05-10T14:28:28;99831.94;;;20.30;29.51
73692;BME280;61996;49.910;35.562;2023-05-10T14:31:31;99831.94;;;20.30;29.47
73692;BME280;61996;49.910;35.562;2023-05-10T14:34:34;99827.72;;;20.27;29.46
73692;BME280;61996;49.910;35.562;2023-05-10T14:37:36;99844.88;;;20.24;29.17
73692;BME280;61996;49.910;35.562;2023-05-10T14:40:40;99835.59;;;20.29;29.40
73692;BME280;61996;49.910;35.562;2023-05-10T14:43:44;99825.75;;;20.29;29.45
73692;BME280;61996;49.910;35.562;2023-05-10T14:46:47;99820.13;;;20.22;29.50
73692;BME280;61996;49.910;35.562;2023-05-10T14:49:51;99826.47;;;20.21;29.61
73692;BME280;61996;49.910;35.562;2023-05-10T14:56:34;99825.06;;;20.27;29.48
73692;BME280;61996;49.910;35.562;2023-05-10T14:59:38;99836.72;;;20.26;29.29
73692;BME280;61996;49.910;35.562;2023-05-10T15:02:41;99821.81;;;20.23;29.43
73692;BME280;61996;49.910;35.562;2023-05-10T15:05:46;99820.69;;;20.16;29.51
73692;BME280;61996;49.910;35.562;2023-05-10T15:08:49;99827.16;;;20.23;29.42
73692;BME280;61996;49.910;35.562;2023-05-10T15:11:54;99824.63;;;20.22;29.36
73692;BME280;61996;49.910;35.562;2023-05-10T15:14:57;99825.22;;;20.25;29.36
73692;BME280;61996;49.910;35.562;2023-05-10T15:18:00;99829.81;;;20.23;29.32
73692;BME280;61996;49.910;35.562;2023-05-10T15:21:03;99823.78;;;20.21;29.57
73692;BME280;61996;49.910;35.562;2023-05-10T15:24:06;99827.16;;;20.23;29.39
73692;BME280;61996;49.910;35.562;2023-05-10T15:27:10;99833.47;;;20.22;29.53
73692;BME280;61996;49.910;35.562;2023-05-10T15:30:13;99830.97;;;20.21;29.68
73692;BME280;61996;49.910;35.562;2023-05-10T15:33:15;99827.88;;;20.25;29.60
73692;BME280;61996;49.910;35.562;2023-05-10T15:36:18;99838.41;;;20.27;29.58
73692;BME280;61996;49.910;35.562;2023-05-10T15:39:21;99838.00;;;20.22;29.41
73692;BME280;61996;49.910;35.562;2023-05-10T15:42:25;99834.31;;;20.23;29.65
73692;BME280;61996;49.910;35.562;2023-05-10T15:45:28;99837.28;;;20.20;29.69
73692;BME280;61996;49.910;35.562;2023-05-10T15:48:31;99848.66;;;20.22;29.41
73692;BME280;61996;49.910;35.562;2023-05-10T15:51:33;99850.50;;;20.21;29.76
73692;BME280;61996;49.910;35.562;2023-05-10T15:54:37;99854.84;;;20.22;29.81
73692;BME280;61996;49.910;35.562;2023-05-10T15:57:41;99847.97;;;20.20;30.02
73692;BME280;61996;49.910;35.562;2023-05-10T16:00:45;99850.22;;;20.15;29.80
73692;BME280;61996;49.910;35.562;2023-05-10T16:03:47;99851.91;;;20.16;29.99
73692;BME280;61996;49.910;35.562;2023-05-10T16:06:50;99854.72;;;20.14;30.22